Vincennes, Indiana
Current Conditions -  °F | °C
As of 4:53 PM on Thursday 18 Dec 2014 (Local Time) from KLWV Reporting Station
Overcast Overcast  
Wind Chill: 31°   Ceiling: 8500
Heat Index: 31°   Visibility: 9mi
Dew Point: 24°   Wind: 0mph
Humidity: 76%   Direction: NA
Pressure: 30.25"   Gusts: NA
Location:  38.68°N, 87.53°W
Report Text: KLWV 182253Z AUTO 00000KT 9SM OVC085 M01/M04 A3025 RMK AO2 SLP249 T10061044
Loading
Personal Weather Stations






























Interactive Weather Map New forecast layout! Learn more

10-Day Weather Forecast

Advertisements
Track Severe Weather on mobile